sensor_id;sensor_type;location;lat;lon;timestamp;P1;durP1;ratioP1;P2;durP2;ratioP2
19754;SDS011;10036;47.812;9.274;2023-05-10T00:00:35;2.38;;;0.98;;
19754;SDS011;10036;47.812;9.274;2023-05-10T00:03:02;1.58;;;0.90;;
19754;SDS011;10036;47.812;9.274;2023-05-10T00:05:30;1.00;;;1.00;;
19754;SDS011;10036;47.812;9.274;2023-05-10T00:07:58;0.80;;;0.80;;
19754;SDS011;10036;47.812;9.274;2023-05-10T00:10:25;0.73;;;0.73;;
19754;SDS011;10036;47.812;9.274;2023-05-10T00:12:52;4.95;;;1.00;;
19754;SDS011;10036;47.812;9.274;2023-05-10T00:15:19;3.90;;;1.00;;
19754;SDS011;10036;47.812;9.274;2023-05-10T00:17:46;1.20;;;0.90;;
19754;SDS011;10036;47.812;9.274;2023-05-10T00:20:12;1.33;;;0.70;;
19754;SDS011;10036;47.812;9.274;2023-05-10T00:22:39;0.90;;;0.77;;
19754;SDS011;10036;47.812;9.274;2023-05-10T00:25:08;1.80;;;0.70;;
19754;SDS011;10036;47.812;9.274;2023-05-10T00:27:35;0.80;;;0.80;;
19754;SDS011;10036;47.812;9.274;2023-05-10T00:30:03;1.95;;;0.73;;
19754;SDS011;10036;47.812;9.274;2023-05-10T00:32:31;0.68;;;0.68;;
19754;SDS011;10036;47.812;9.274;2023-05-10T00:34:58;0.80;;;0.80;;
19754;SDS011;10036;47.812;9.274;2023-05-10T00:37:25;0.80;;;0.80;;
19754;SDS011;10036;47.812;9.274;2023-05-10T00:39:51;0.80;;;0.80;;
19754;SDS011;10036;47.812;9.274;2023-05-10T00:42:20;0.70;;;0.70;;
19754;SDS011;10036;47.812;9.274;2023-05-10T00:44:47;0.80;;;0.80;;
19754;SDS011;10036;47.812;9.274;2023-05-10T00:47:14;1.25;;;0.80;;
19754;SDS011;10036;47.812;9.274;2023-05-10T00:49:42;1.40;;;0.85;;
19754;SDS011;10036;47.812;9.274;2023-05-10T00:52:09;2.28;;;0.90;;
19754;SDS011;10036;47.812;9.274;2023-05-10T00:54:36;1.80;;;0.90;;
19754;SDS011;10036;47.812;9.274;2023-05-10T00:57:03;1.55;;;0.85;;
19754;SDS011;10036;47.812;9.274;2023-05-10T00:59:31;0.77;;;0.77;;
19754;SDS011;10036;47.812;9.274;2023-05-10T01:01:58;1.77;;;1.00;;
19754;SDS011;10036;47.812;9.274;2023-05-10T01:04:26;2.88;;;1.10;;
19754;SDS011;10036;47.812;9.274;2023-05-10T01:06:53;1.00;;;1.00;;
19754;SDS011;10036;47.812;9.274;2023-05-10T01:09:20;1.00;;;1.00;;
19754;SDS011;10036;47.812;9.274;2023-05-10T01:11:47;0.90;;;0.90;;
19754;SDS011;10036;47.812;9.274;2023-05-10T01:14:15;0.98;;;0.98;;
19754;SDS011;10036;47.812;9.274;2023-05-10T01:16:46;0.73;;;0.73;;
19754;SDS011;10036;47.812;9.274;2023-05-10T01:19:17;1.42;;;1.10;;
19754;SDS011;10036;47.812;9.274;2023-05-10T01:21:48;0.93;;;0.93;;
19754;SDS011;10036;47.812;9.274;2023-05-10T01:24:25;2.35;;;1.60;;
19754;SDS011;10036;47.812;9.274;2023-05-10T01:27:17;1.63;;;1.20;;
19754;SDS011;10036;47.812;9.274;2023-05-10T01:30:04;1.13;;;0.98;;
19754;SDS011;10036;47.812;9.274;2023-05-10T01:32:50;0.90;;;0.90;;
19754;SDS011;10036;47.812;9.274;2023-05-10T01:35:26;3.63;;;1.15;;
19754;SDS011;10036;47.812;9.274;2023-05-10T01:38:01;1.63;;;0.90;;
19754;SDS011;10036;47.812;9.274;2023-05-10T01:40:35;1.20;;;1.00;;
19754;SDS011;10036;47.812;9.274;2023-05-10T01:43:13;2.33;;;1.48;;
19754;SDS011;10036;47.812;9.274;2023-05-10T01:45:47;1.25;;;1.20;;
19754;SDS011;10036;47.812;9.274;2023-05-10T01:48:22;2.28;;;1.10;;
19754;SDS011;10036;47.812;9.274;2023-05-10T01:50:53;1.25;;;1.13;;
19754;SDS011;10036;47.812;9.274;2023-05-10T01:53:21;2.50;;;1.10;;
19754;SDS011;10036;47.812;9.274;2023-05-10T01:55:51;1.23;;;0.98;;
19754;SDS011;10036;47.812;9.274;2023-05-10T01:58:21;6.95;;;1.30;;
19754;SDS011;10036;47.812;9.274;2023-05-10T02:00:53;1.80;;;1.48;;
19754;SDS011;10036;47.812;9.274;2023-05-10T02:03:21;1.30;;;1.10;;
19754;SDS011;10036;47.812;9.274;2023-05-10T02:05:51;1.63;;;1.10;;
19754;SDS011;10036;47.812;9.274;2023-05-10T02:08:19;2.05;;;0.95;;
19754;SDS011;10036;47.812;9.274;2023-05-10T02:10:48;1.20;;;1.00;;
19754;SDS011;10036;47.812;9.274;2023-05-10T02:13:18;1.17;;;1.00;;
19754;SDS011;10036;47.812;9.274;2023-05-10T02:15:46;3.72;;;1.80;;
19754;SDS011;10036;47.812;9.274;2023-05-10T02:18:14;1.20;;;1.10;;
19754;SDS011;10036;47.812;9.274;2023-05-10T02:20:43;1.40;;;1.30;;
19754;SDS011;10036;47.812;9.274;2023-05-10T02:23:12;1.75;;;0.95;;
19754;SDS011;10036;47.812;9.274;2023-05-10T02:25:40;1.02;;;0.90;;
19754;SDS011;10036;47.812;9.274;2023-05-10T02:28:08;1.50;;;1.40;;
19754;SDS011;10036;47.812;9.274;2023-05-10T02:30:37;4.53;;;1.27;;
19754;SDS011;10036;47.812;9.274;2023-05-10T02:33:05;2.05;;;1.20;;
19754;SDS011;10036;47.812;9.274;2023-05-10T02:35:33;1.50;;;1.40;;
19754;SDS011;10036;47.812;9.274;2023-05-10T02:38:02;3.28;;;1.83;;
19754;SDS011;10036;47.812;9.274;2023-05-10T02:40:31;1.77;;;1.30;;
19754;SDS011;10036;47.812;9.274;2023-05-10T02:42:59;1.15;;;1.13;;
19754;SDS011;10036;47.812;9.274;2023-05-10T02:45:28;1.00;;;1.00;;
19754;SDS011;10036;47.812;9.274;2023-05-10T02:47:57;0.90;;;0.90;;
19754;SDS011;10036;47.812;9.274;2023-05-10T02:50:25;1.00;;;1.00;;
19754;SDS011;10036;47.812;9.274;2023-05-10T02:52:54;2.63;;;1.10;;
19754;SDS011;10036;47.812;9.274;2023-05-10T02:55:29;1.10;;;1.10;;
19754;SDS011;10036;47.812;9.274;2023-05-10T02:58:01;2.70;;;1.20;;
19754;SDS011;10036;47.812;9.274;2023-05-10T03:00:29;1.05;;;1.00;;
19754;SDS011;10036;47.812;9.274;2023-05-10T03:02:56;1.73;;;1.20;;
19754;SDS011;10036;47.812;9.274;2023-05-10T03:05:22;3.42;;;1.00;;
19754;SDS011;10036;47.812;9.274;2023-05-10T03:07:49;1.20;;;1.20;;
19754;SDS011;10036;47.812;9.274;2023-05-10T03:10:17;2.63;;;1.08;;
19754;SDS011;10036;47.812;9.274;2023-05-10T03:12:55;1.08;;;1.00;;
19754;SDS011;10036;47.812;9.274;2023-05-10T03:15:33;1.10;;;1.10;;
19754;SDS011;10036;47.812;9.274;2023-05-10T03:18:09;1.48;;;1.38;;
19754;SDS011;10036;47.812;9.274;2023-05-10T03:20:41;4.03;;;1.73;;
19754;SDS011;10036;47.812;9.274;2023-05-10T03:23:11;1.95;;;1.50;;
19754;SDS011;10036;47.812;9.274;2023-05-10T03:25:43;1.25;;;1.25;;
19754;SDS011;10036;47.812;9.274;2023-05-10T03:28:13;1.52;;;1.42;;
19754;SDS011;10036;47.812;9.274;2023-05-10T03:30:41;1.15;;;1.15;;
19754;SDS011;10036;47.812;9.274;2023-05-10T03:33:09;1.40;;;1.40;;
19754;SDS011;10036;47.812;9.274;2023-05-10T03:35:38;1.38;;;1.30;;
19754;SDS011;10036;47.812;9.274;2023-05-10T03:38:05;2.80;;;1.60;;
19754;SDS011;10036;47.812;9.274;2023-05-10T03:40:32;3.53;;;1.90;;
19754;SDS011;10036;47.812;9.274;2023-05-10T03:42:59;1.80;;;1.70;;
19754;SDS011;10036;47.812;9.274;2023-05-10T03:45:27;1.73;;;1.63;;
19754;SDS011;10036;47.812;9.274;2023-05-10T03:47:55;3.70;;;1.67;;
19754;SDS011;10036;47.812;9.274;2023-05-10T03:50:23;2.90;;;1.60;;
19754;SDS011;10036;47.812;9.274;2023-05-10T03:52:51;2.45;;;2.00;;
19754;SDS011;10036;47.812;9.274;2023-05-10T03:55:18;3.53;;;2.30;;
19754;SDS011;10036;47.812;9.274;2023-05-10T03:57:45;1.80;;;1.70;;
19754;SDS011;10036;47.812;9.274;2023-05-10T04:00:14;2.70;;;1.73;;
19754;SDS011;10036;47.812;9.274;2023-05-10T04:02:43;1.58;;;1.30;;
19754;SDS011;10036;47.812;9.274;2023-05-10T04:05:10;1.30;;;1.30;;
19754;SDS011;10036;47.812;9.274;2023-05-10T04:07:37;1.55;;;1.45;;
19754;SDS011;10036;47.812;9.274;2023-05-10T04:10:04;1.70;;;1.60;;
19754;SDS011;10036;47.812;9.274;2023-05-10T04:12:32;1.92;;;1.80;;
19754;SDS011;10036;47.812;9.274;2023-05-10T04:14:58;1.70;;;1.60;;
19754;SDS011;10036;47.812;9.274;2023-05-10T04:17:26;4.72;;;1.95;;
19754;SDS011;10036;47.812;9.274;2023-05-10T04:19:54;2.30;;;1.80;;
19754;SDS011;10036;47.812;9.274;2023-05-10T04:22:22;1.85;;;1.60;;
19754;SDS011;10036;47.812;9.274;2023-05-10T04:24:49;1.98;;;1.70;;
19754;SDS011;10036;47.812;9.274;2023-05-10T04:27:16;1.63;;;1.40;;
19754;SDS011;10036;47.812;9.274;2023-05-10T04:29:42;1.52;;;1.42;;
19754;SDS011;10036;47.812;9.274;2023-05-10T04:32:09;1.83;;;1.40;;
19754;SDS011;10036;47.812;9.274;2023-05-10T04:34:36;4.45;;;1.50;;
19754;SDS011;10036;47.812;9.274;2023-05-10T04:37:04;1.85;;;1.20;;
19754;SDS011;10036;47.812;9.274;2023-05-10T04:39:32;2.45;;;1.50;;
19754;SDS011;10036;47.812;9.274;2023-05-10T04:42:00;2.33;;;1.45;;
19754;SDS011;10036;47.812;9.274;2023-05-10T04:44:27;1.58;;;1.48;;
19754;SDS011;10036;47.812;9.274;2023-05-10T04:46:54;1.85;;;1.38;;
19754;SDS011;10036;47.812;9.274;2023-05-10T04:49:21;2.33;;;1.85;;
19754;SDS011;10036;47.812;9.274;2023-05-10T04:51:48;1.77;;;1.67;;
19754;SDS011;10036;47.812;9.274;2023-05-10T04:54:16;1.70;;;1.48;;
19754;SDS011;10036;47.812;9.274;2023-05-10T04:56:43;1.38;;;1.27;;
19754;SDS011;10036;47.812;9.274;2023-05-10T04:59:10;1.35;;;1.35;;
19754;SDS011;10036;47.812;9.274;2023-05-10T05:01:37;2.67;;;1.83;;
19754;SDS011;10036;47.812;9.274;2023-05-10T05:04:04;2.35;;;2.10;;
19754;SDS011;10036;47.812;9.274;2023-05-10T05:06:31;1.50;;;1.40;;
19754;SDS011;10036;47.812;9.274;2023-05-10T05:08:58;1.50;;;1.42;;
19754;SDS011;10036;47.812;9.274;2023-05-10T05:11:26;3.15;;;1.73;;
19754;SDS011;10036;47.812;9.274;2023-05-10T05:13:53;2.00;;;1.50;;
19754;SDS011;10036;47.812;9.274;2023-05-10T05:16:20;1.92;;;1.75;;
19754;SDS011;10036;47.812;9.274;2023-05-10T05:18:47;3.72;;;1.70;;
19754;SDS011;10036;47.812;9.274;2023-05-10T05:21:14;1.90;;;1.75;;
19754;SDS011;10036;47.812;9.274;2023-05-10T05:23:42;2.45;;;1.60;;
19754;SDS011;10036;47.812;9.274;2023-05-10T05:26:09;3.15;;;2.25;;
19754;SDS011;10036;47.812;9.274;2023-05-10T05:28:37;2.80;;;1.80;;
19754;SDS011;10036;47.812;9.274;2023-05-10T05:31:04;2.45;;;1.73;;
19754;SDS011;10036;47.812;9.274;2023-05-10T05:33:32;1.77;;;1.63;;
19754;SDS011;10036;47.812;9.274;2023-05-10T05:36:00;4.38;;;1.70;;
19754;SDS011;10036;47.812;9.274;2023-05-10T05:38:27;3.42;;;1.60;;
19754;SDS011;10036;47.812;9.274;2023-05-10T05:40:54;3.13;;;1.70;;
19754;SDS011;10036;47.812;9.274;2023-05-10T05:43:21;1.80;;;1.70;;
19754;SDS011;10036;47.812;9.274;2023-05-10T05:45:49;2.47;;;1.75;;
19754;SDS011;10036;47.812;9.274;2023-05-10T05:48:17;1.92;;;1.58;;
19754;SDS011;10036;47.812;9.274;2023-05-10T05:50:45;1.70;;;1.60;;
19754;SDS011;10036;47.812;9.274;2023-05-10T05:53:12;2.40;;;1.60;;
19754;SDS011;10036;47.812;9.274;2023-05-10T05:55:38;3.40;;;1.52;;
19754;SDS011;10036;47.812;9.274;2023-05-10T05:58:05;1.83;;;1.58;;
19754;SDS011;10036;47.812;9.274;2023-05-10T06:00:32;3.70;;;1.55;;
19754;SDS011;10036;47.812;9.274;2023-05-10T06:03:01;3.08;;;1.40;;
19754;SDS011;10036;47.812;9.274;2023-05-10T06:05:28;1.70;;;1.60;;
19754;SDS011;10036;47.812;9.274;2023-05-10T06:07:54;2.25;;;1.58;;
19754;SDS011;10036;47.812;9.274;2023-05-10T06:10:22;2.03;;;1.48;;
19754;SDS011;10036;47.812;9.274;2023-05-10T06:12:50;3.90;;;1.40;;
19754;SDS011;10036;47.812;9.274;2023-05-10T06:15:17;1.50;;;1.40;;
19754;SDS011;10036;47.812;9.274;2023-05-10T06:17:44;1.63;;;1.50;;
19754;SDS011;10036;47.812;9.274;2023-05-10T06:20:13;2.60;;;1.50;;
19754;SDS011;10036;47.812;9.274;2023-05-10T06:22:40;2.30;;;1.40;;
19754;SDS011;10036;47.812;9.274;2023-05-10T06:25:08;1.45;;;1.35;;
19754;SDS011;10036;47.812;9.274;2023-05-10T06:27:36;2.25;;;1.52;;
19754;SDS011;10036;47.812;9.274;2023-05-10T06:30:03;1.52;;;1.23;;
19754;SDS011;10036;47.812;9.274;2023-05-10T06:32:31;3.28;;;1.33;;
19754;SDS011;10036;47.812;9.274;2023-05-10T06:34:59;2.15;;;1.40;;
19754;SDS011;10036;47.812;9.274;2023-05-10T06:37:27;2.67;;;1.25;;
19754;SDS011;10036;47.812;9.274;2023-05-10T06:39:54;1.50;;;1.40;;
19754;SDS011;10036;47.812;9.274;2023-05-10T06:42:21;2.15;;;1.50;;
19754;SDS011;10036;47.812;9.274;2023-05-10T06:44:50;2.75;;;1.30;;
19754;SDS011;10036;47.812;9.274;2023-05-10T06:47:17;1.85;;;1.10;;
19754;SDS011;10036;47.812;9.274;2023-05-10T06:49:44;3.67;;;1.10;;
19754;SDS011;10036;47.812;9.274;2023-05-10T06:52:11;2.17;;;1.50;;
19754;SDS011;10036;47.812;9.274;2023-05-10T06:54:39;1.50;;;1.40;;
19754;SDS011;10036;47.812;9.274;2023-05-10T06:57:06;1.52;;;1.10;;
19754;SDS011;10036;47.812;9.274;2023-05-10T06:59:32;1.48;;;1.02;;
19754;SDS011;10036;47.812;9.274;2023-05-10T07:01:59;3.90;;;1.05;;
19754;SDS011;10036;47.812;9.274;2023-05-10T07:04:26;3.97;;;1.40;;
19754;SDS011;10036;47.812;9.274;2023-05-10T07:06:53;2.45;;;1.40;;
19754;SDS011;10036;47.812;9.274;2023-05-10T07:09:20;3.83;;;1.27;;
19754;SDS011;10036;47.812;9.274;2023-05-10T07:11:48;1.67;;;1.40;;
19754;SDS011;10036;47.812;9.274;2023-05-10T07:14:15;2.08;;;1.50;;
19754;SDS011;10036;47.812;9.274;2023-05-10T07:16:42;2.50;;;1.40;;
19754;SDS011;10036;47.812;9.274;2023-05-10T07:19:09;2.75;;;1.35;;
19754;SDS011;10036;47.812;9.274;2023-05-10T07:21:36;2.75;;;1.70;;
19754;SDS011;10036;47.812;9.274;2023-05-10T07:24:03;2.05;;;1.60;;
19754;SDS011;10036;47.812;9.274;2023-05-10T07:26:30;4.00;;;1.48;;
19754;SDS011;10036;47.812;9.274;2023-05-10T07:28:58;2.35;;;1.40;;
19754;SDS011;10036;47.812;9.274;2023-05-10T07:31:25;1.58;;;1.48;;
19754;SDS011;10036;47.812;9.274;2023-05-10T07:33:52;1.38;;;1.27;;
19754;SDS011;10036;47.812;9.274;2023-05-10T07:36:19;1.35;;;1.23;;
19754;SDS011;10036;47.812;9.274;2023-05-10T07:38:45;1.65;;;1.23;;
19754;SDS011;10036;47.812;9.274;2023-05-10T07:41:12;3.17;;;1.60;;
19754;SDS011;10036;47.812;9.274;2023-05-10T07:43:39;3.47;;;1.50;;
19754;SDS011;10036;47.812;9.274;2023-05-10T07:46:07;3.13;;;1.42;;
19754;SDS011;10036;47.812;9.274;2023-05-10T07:48:36;1.75;;;1.42;;
19754;SDS011;10036;47.812;9.274;2023-05-10T07:51:03;3.67;;;1.40;;
19754;SDS011;10036;47.812;9.274;2023-05-10T07:53:31;1.80;;;1.30;;
19754;SDS011;10036;47.812;9.274;2023-05-10T07:55:58;2.28;;;1.35;;
19754;SDS011;10036;47.812;9.274;2023-05-10T07:58:25;2.70;;;1.38;;
19754;SDS011;10036;47.812;9.274;2023-05-10T08:00:55;1.50;;;1.40;;
19754;SDS011;10036;47.812;9.274;2023-05-10T08:03:23;1.52;;;1.15;;
19754;SDS011;10036;47.812;9.274;2023-05-10T08:05:50;1.42;;;1.30;;
19754;SDS011;10036;47.812;9.274;2023-05-10T08:08:17;1.38;;;1.30;;
19754;SDS011;10036;47.812;9.274;2023-05-10T08:10:46;4.03;;;1.30;;
19754;SDS011;10036;47.812;9.274;2023-05-10T08:13:13;2.95;;;1.35;;
19754;SDS011;10036;47.812;9.274;2023-05-10T08:15:40;1.35;;;1.25;;
19754;SDS011;10036;47.812;9.274;2023-05-10T08:18:07;1.42;;;1.27;;
19754;SDS011;10036;47.812;9.274;2023-05-10T08:20:35;2.92;;;1.70;;
19754;SDS011;10036;47.812;9.274;2023-05-10T08:23:02;1.50;;;1.40;;
19754;SDS011;10036;47.812;9.274;2023-05-10T08:25:29;2.53;;;1.30;;
19754;SDS011;10036;47.812;9.274;2023-05-10T08:27:56;1.00;;;1.00;;
19754;SDS011;10036;47.812;9.274;2023-05-10T08:30:23;1.00;;;1.00;;
19754;SDS011;10036;47.812;9.274;2023-05-10T08:32:50;1.33;;;1.10;;
19754;SDS011;10036;47.812;9.274;2023-05-10T08:35:16;2.08;;;0.90;;
19754;SDS011;10036;47.812;9.274;2023-05-10T08:37:45;1.05;;;1.05;;
19754;SDS011;10036;47.812;9.274;2023-05-10T08:40:12;2.38;;;1.20;;
19754;SDS011;10036;47.812;9.274;2023-05-10T08:42:41;1.88;;;1.00;;
19754;SDS011;10036;47.812;9.274;2023-05-10T08:45:13;2.90;;;1.00;;
19754;SDS011;10036;47.812;9.274;2023-05-10T08:47:42;1.17;;;1.08;;
19754;SDS011;10036;47.812;9.274;2023-05-10T08:50:10;2.17;;;1.42;;
19754;SDS011;10036;47.812;9.274;2023-05-10T08:52:37;1.02;;;1.02;;
19754;SDS011;10036;47.812;9.274;2023-05-10T08:55:08;1.17;;;1.17;;
19754;SDS011;10036;47.812;9.274;2023-05-10T08:57:35;0.90;;;0.90;;
19754;SDS011;10036;47.812;9.274;2023-05-10T09:00:03;1.38;;;0.90;;
19754;SDS011;10036;47.812;9.274;2023-05-10T09:02:30;1.38;;;1.27;;
19754;SDS011;10036;47.812;9.274;2023-05-10T09:04:57;0.90;;;0.90;;
19754;SDS011;10036;47.812;9.274;2023-05-10T09:07:24;1.73;;;0.88;;
19754;SDS011;10036;47.812;9.274;2023-05-10T09:09:52;0.95;;;0.93;;
19754;SDS011;10036;47.812;9.274;2023-05-10T09:12:21;0.90;;;0.90;;
19754;SDS011;10036;47.812;9.274;2023-05-10T09:14:48;1.27;;;1.05;;
19754;SDS011;10036;47.812;9.274;2023-05-10T09:17:16;1.40;;;0.93;;
19754;SDS011;10036;47.812;9.274;2023-05-10T09:19:44;2.05;;;0.80;;
19754;SDS011;10036;47.812;9.274;2023-05-10T09:22:11;1.63;;;1.05;;
19754;SDS011;10036;47.812;9.274;2023-05-10T09:24:38;3.55;;;0.90;;
19754;SDS011;10036;47.812;9.274;2023-05-10T09:27:10;1.58;;;0.88;;
19754;SDS011;10036;47.812;9.274;2023-05-10T09:29:41;5.10;;;1.15;;
19754;SDS011;10036;47.812;9.274;2023-05-10T09:32:08;0.80;;;0.80;;
19754;SDS011;10036;47.812;9.274;2023-05-10T09:34:35;0.88;;;0.88;;
19754;SDS011;10036;47.812;9.274;2023-05-10T09:37:05;0.88;;;0.88;;
19754;SDS011;10036;47.812;9.274;2023-05-10T09:39:33;1.25;;;1.13;;
19754;SDS011;10036;47.812;9.274;2023-05-10T09:42:01;1.45;;;1.02;;
19754;SDS011;10036;47.812;9.274;2023-05-10T09:44:30;1.50;;;1.20;;
19754;SDS011;10036;47.812;9.274;2023-05-10T09:46:59;2.25;;;1.00;;
19754;SDS011;10036;47.812;9.274;2023-05-10T09:49:26;1.42;;;1.00;;
19754;SDS011;10036;47.812;9.274;2023-05-10T09:52:00;1.92;;;1.10;;
19754;SDS011;10036;47.812;9.274;2023-05-10T09:54:28;1.33;;;1.15;;
19754;SDS011;10036;47.812;9.274;2023-05-10T09:56:56;1.83;;;1.10;;
19754;SDS011;10036;47.812;9.274;2023-05-10T09:59:24;2.38;;;1.30;;
19754;SDS011;10036;47.812;9.274;2023-05-10T10:01:52;3.03;;;1.40;;
19754;SDS011;10036;47.812;9.274;2023-05-10T10:04:21;3.55;;;1.33;;
19754;SDS011;10036;47.812;9.274;2023-05-10T10:06:57;1.13;;;1.10;;
19754;SDS011;10036;47.812;9.274;2023-05-10T10:09:26;2.42;;;1.17;;
19754;SDS011;10036;47.812;9.274;2023-05-10T10:11:53;1.73;;;1.38;;
19754;SDS011;10036;47.812;9.274;2023-05-10T10:14:21;2.75;;;1.30;;
19754;SDS011;10036;47.812;9.274;2023-05-10T10:16:48;1.30;;;1.00;;
19754;SDS011;10036;47.812;9.274;2023-05-10T10:19:16;2.97;;;1.65;;
19754;SDS011;10036;47.812;9.274;2023-05-10T10:21:45;1.20;;;1.08;;
19754;SDS011;10036;47.812;9.274;2023-05-10T10:24:12;2.22;;;1.23;;
19754;SDS011;10036;47.812;9.274;2023-05-10T10:26:39;3.08;;;1.30;;
19754;SDS011;10036;47.812;9.274;2023-05-10T10:29:10;1.20;;;1.10;;
19754;SDS011;10036;47.812;9.274;2023-05-10T10:31:47;1.80;;;1.20;;
19754;SDS011;10036;47.812;9.274;2023-05-10T10:34:21;4.53;;;1.50;;
19754;SDS011;10036;47.812;9.274;2023-05-10T10:36:54;2.40;;;1.23;;
19754;SDS011;10036;47.812;9.274;2023-05-10T10:39:22;2.30;;;1.23;;
19754;SDS011;10036;47.812;9.274;2023-05-10T10:41:51;3.83;;;1.20;;
19754;SDS011;10036;47.812;9.274;2023-05-10T10:44:23;2.47;;;0.85;;
19754;SDS011;10036;47.812;9.274;2023-05-10T10:47:00;1.13;;;0.98;;
19754;SDS011;10036;47.812;9.274;2023-05-10T10:49:30;0.90;;;0.80;;
19754;SDS011;10036;47.812;9.274;2023-05-10T10:52:17;0.80;;;0.80;;
19754;SDS011;10036;47.812;9.274;2023-05-10T10:54:51;1.00;;;0.90;;
19754;SDS011;10036;47.812;9.274;2023-05-10T10:57:20;1.35;;;0.90;;
19754;SDS011;10036;47.812;9.274;2023-05-10T10:59:47;7.40;;;1.10;;
19754;SDS011;10036;47.812;9.274;2023-05-10T11:02:32;1.02;;;1.02;;
19754;SDS011;10036;47.812;9.274;2023-05-10T11:05:00;0.95;;;0.90;;
19754;SDS011;10036;47.812;9.274;2023-05-10T11:08:13;1.75;;;1.00;;
19754;SDS011;10036;47.812;9.274;2023-05-10T11:11:02;0.82;;;0.82;;
19754;SDS011;10036;47.812;9.274;2023-05-10T11:13:32;3.55;;;1.10;;
19754;SDS011;10036;47.812;9.274;2023-05-10T11:16:10;2.17;;;0.70;;
19754;SDS011;10036;47.812;9.274;2023-05-10T11:18:51;1.65;;;0.80;;
19754;SDS011;10036;47.812;9.274;2023-05-10T11:21:28;3.35;;;0.80;;
19754;SDS011;10036;47.812;9.274;2023-05-10T11:23:58;1.42;;;0.82;;
19754;SDS011;10036;47.812;9.274;2023-05-10T11:26:26;1.13;;;0.90;;
19754;SDS011;10036;47.812;9.274;2023-05-10T11:28:57;2.97;;;0.90;;
19754;SDS011;10036;47.812;9.274;2023-05-10T11:31:25;0.70;;;0.70;;
19754;SDS011;10036;47.812;9.274;2023-05-10T11:33:53;2.90;;;0.90;;
19754;SDS011;10036;47.812;9.274;2023-05-10T11:36:21;0.80;;;0.80;;
19754;SDS011;10036;47.812;9.274;2023-05-10T11:38:50;2.10;;;0.80;;
19754;SDS011;10036;47.812;9.274;2023-05-10T11:41:19;1.02;;;0.80;;
19754;SDS011;10036;47.812;9.274;2023-05-10T11:43:47;1.20;;;1.10;;
19754;SDS011;10036;47.812;9.274;2023-05-10T11:46:16;1.48;;;1.00;;
19754;SDS011;10036;47.812;9.274;2023-05-10T11:48:45;3.92;;;1.20;;
19754;SDS011;10036;47.812;9.274;2023-05-10T11:51:12;1.00;;;0.90;;
19754;SDS011;10036;47.812;9.274;2023-05-10T11:53:39;2.42;;;1.20;;
19754;SDS011;10036;47.812;9.274;2023-05-10T11:56:07;2.55;;;1.10;;
19754;SDS011;10036;47.812;9.274;2023-05-10T11:58:37;1.00;;;1.00;;
19754;SDS011;10036;47.812;9.274;2023-05-10T12:01:05;3.65;;;1.10;;
19754;SDS011;10036;47.812;9.274;2023-05-10T12:03:34;1.60;;;0.90;;
19754;SDS011;10036;47.812;9.274;2023-05-10T12:06:01;2.75;;;1.20;;
19754;SDS011;10036;47.812;9.274;2023-05-10T12:08:29;1.52;;;1.30;;
19754;SDS011;10036;47.812;9.274;2023-05-10T12:11:03;3.45;;;1.33;;
19754;SDS011;10036;47.812;9.274;2023-05-10T12:13:31;2.72;;;1.30;;
19754;SDS011;10036;47.812;9.274;2023-05-10T12:16:00;7.60;;;1.50;;
19754;SDS011;10036;47.812;9.274;2023-05-10T12:18:39;2.88;;;1.42;;
19754;SDS011;10036;47.812;9.274;2023-05-10T12:21:07;2.35;;;1.20;;
19754;SDS011;10036;47.812;9.274;2023-05-10T12:23:36;2.83;;;1.10;;
19754;SDS011;10036;47.812;9.274;2023-05-10T12:26:03;3.60;;;1.17;;
19754;SDS011;10036;47.812;9.274;2023-05-10T12:28:31;2.50;;;1.40;;
19754;SDS011;10036;47.812;9.274;2023-05-10T12:31:00;2.03;;;1.33;;
19754;SDS011;10036;47.812;9.274;2023-05-10T12:33:28;4.65;;;1.50;;
19754;SDS011;10036;47.812;9.274;2023-05-10T12:36:02;3.67;;;1.25;;
19754;SDS011;10036;47.812;9.274;2023-05-10T12:38:29;2.38;;;1.17;;
19754;SDS011;10036;47.812;9.274;2023-05-10T12:41:01;2.63;;;1.10;;
19754;SDS011;10036;47.812;9.274;2023-05-10T12:43:29;1.85;;;1.20;;
19754;SDS011;10036;47.812;9.274;2023-05-10T12:45:56;3.60;;;1.30;;
19754;SDS011;10036;47.812;9.274;2023-05-10T12:48:24;1.85;;;1.02;;
19754;SDS011;10036;47.812;9.274;2023-05-10T12:50:53;2.05;;;1.10;;
19754;SDS011;10036;47.812;9.274;2023-05-10T12:53:20;5.28;;;1.20;;
19754;SDS011;10036;47.812;9.274;2023-05-10T12:55:47;2.45;;;1.33;;
19754;SDS011;10036;47.812;9.274;2023-05-10T12:58:14;2.33;;;1.33;;
19754;SDS011;10036;47.812;9.274;2023-05-10T13:00:41;2.20;;;1.20;;
19754;SDS011;10036;47.812;9.274;2023-05-10T13:03:08;5.47;;;1.20;;
19754;SDS011;10036;47.812;9.274;2023-05-10T13:05:37;2.72;;;1.50;;
19754;SDS011;10036;47.812;9.274;2023-05-10T13:08:04;3.85;;;1.05;;
19754;SDS011;10036;47.812;9.274;2023-05-10T13:10:31;1.90;;;1.10;;
19754;SDS011;10036;47.812;9.274;2023-05-10T13:12:58;2.80;;;1.20;;
19754;SDS011;10036;47.812;9.274;2023-05-10T13:15:25;2.03;;;1.10;;
19754;SDS011;10036;47.812;9.274;2023-05-10T13:17:53;3.25;;;1.23;;
19754;SDS011;10036;47.812;9.274;2023-05-10T13:20:20;2.47;;;1.10;;
19754;SDS011;10036;47.812;9.274;2023-05-10T13:22:48;3.40;;;1.20;;
19754;SDS011;10036;47.812;9.274;2023-05-10T13:25:15;1.85;;;1.00;;
19754;SDS011;10036;47.812;9.274;2023-05-10T13:27:42;1.25;;;0.90;;
19754;SDS011;10036;47.812;9.274;2023-05-10T13:30:09;1.48;;;0.90;;
19754;SDS011;10036;47.812;9.274;2023-05-10T13:32:37;5.03;;;1.27;;
19754;SDS011;10036;47.812;9.274;2023-05-10T13:35:05;3.30;;;1.23;;
19754;SDS011;10036;47.812;9.274;2023-05-10T13:37:33;1.77;;;1.00;;
19754;SDS011;10036;47.812;9.274;2023-05-10T13:40:04;5.15;;;1.25;;
19754;SDS011;10036;47.812;9.274;2023-05-10T13:42:31;1.15;;;1.10;;
19754;SDS011;10036;47.812;9.274;2023-05-10T13:44:59;2.72;;;1.10;;
19754;SDS011;10036;47.812;9.274;2023-05-10T13:47:26;2.83;;;1.33;;
19754;SDS011;10036;47.812;9.274;2023-05-10T13:49:54;2.45;;;1.23;;
19754;SDS011;10036;47.812;9.274;2023-05-10T13:52:22;1.58;;;0.98;;
19754;SDS011;10036;47.812;9.274;2023-05-10T13:54:49;2.15;;;1.20;;
19754;SDS011;10036;47.812;9.274;2023-05-10T13:57:18;3.30;;;1.10;;
19754;SDS011;10036;47.812;9.274;2023-05-10T13:59:45;3.10;;;1.10;;
19754;SDS011;10036;47.812;9.274;2023-05-10T14:02:12;2.33;;;1.23;;
19754;SDS011;10036;47.812;9.274;2023-05-10T14:04:39;2.53;;;0.98;;
19754;SDS011;10036;47.812;9.274;2023-05-10T14:07:07;2.75;;;1.38;;
19754;SDS011;10036;47.812;9.274;2023-05-10T14:09:33;3.88;;;1.20;;
19754;SDS011;10036;47.812;9.274;2023-05-10T14:12:01;2.88;;;1.23;;
19754;SDS011;10036;47.812;9.274;2023-05-10T14:14:29;6.97;;;1.30;;
19754;SDS011;10036;47.812;9.274;2023-05-10T14:16:56;2.00;;;1.10;;
19754;SDS011;10036;47.812;9.274;2023-05-10T14:19:24;1.83;;;1.20;;
19754;SDS011;10036;47.812;9.274;2023-05-10T14:21:51;2.90;;;1.10;;
19754;SDS011;10036;47.812;9.274;2023-05-10T14:24:19;1.20;;;1.00;;
19754;SDS011;10036;47.812;9.274;2023-05-10T14:26:46;2.90;;;0.90;;
19754;SDS011;10036;47.812;9.274;2023-05-10T14:29:12;3.13;;;1.00;;
19754;SDS011;10036;47.812;9.274;2023-05-10T14:31:41;2.10;;;0.93;;
19754;SDS011;10036;47.812;9.274;2023-05-10T14:34:08;2.22;;;1.30;;
19754;SDS011;10036;47.812;9.274;2023-05-10T14:36:35;6.88;;;1.20;;
19754;SDS011;10036;47.812;9.274;2023-05-10T14:39:02;2.90;;;1.20;;
19754;SDS011;10036;47.812;9.274;2023-05-10T14:41:29;1.92;;;1.17;;
19754;SDS011;10036;47.812;9.274;2023-05-10T14:43:56;4.93;;;1.30;;
19754;SDS011;10036;47.812;9.274;2023-05-10T14:46:24;2.35;;;1.10;;
19754;SDS011;10036;47.812;9.274;2023-05-10T14:48:53;1.52;;;1.00;;
19754;SDS011;10036;47.812;9.274;2023-05-10T14:51:21;3.42;;;1.20;;
19754;SDS011;10036;47.812;9.274;2023-05-10T14:53:52;4.00;;;1.20;;
19754;SDS011;10036;47.812;9.274;2023-05-10T14:56:19;2.55;;;1.20;;